LFSB/MLH METAR and TAF weather

Enter ICAO airport designator
Station Type Date Time Source
LFSB METAR 2019/12/08 14:00 UTC NOAA

LFSB 081400Z 24011KT 220V280 9999 SCT040 SCT100 OVC220 13/06 Q1012 NOSIG


Station Type Date Time Source
LFSB Decoded METAR 2019/12/08 14:00 UTC NOAA

Bale-Mulhouse, France (LFSB) 47-36N 007-31E 271M
Dec 08, 2019 - 09:00 AM EST / 2019.12.08 1400 UTC
Wind: from the WSW (240 degrees) at 13 MPH (11 KT) (direction variable):0
Visibility: greater than 7 mile(s):0
Sky conditions: overcast
Temperature: 55 F (13 C)
Dew Point: 42 F (6 C)
Relative Humidity: 62%
Pressure (altimeter): 29.88 in. Hg (1012 hPa)
ob: LFSB 081400Z 24011KT 220V280 9999 SCT040 SCT100 OVC220 13/06 Q1012 NOSIG
cycle: 14

Station Type Date Time Source
LFSB TAF 2019/12/08 12:21 UTC NOAA

TAF LFSB 081100Z 0812/0912 20010KT 9999 BKN045 BKN110
TEMPO 0816/0903 25020G35KT 4000 RA BKN012
TEMPO 0906/0912 -SHRA SCT015TCU BKN020

Example: see airport list